sensor_id;sensor_type;location;lat;lon;timestamp;P1;durP1;ratioP1;P2;durP2;ratioP2
70322;SDS011;57735;56.264;43.898;2023-11-19T00:01:58;11.43;;;4.47;;
70322;SDS011;57735;56.264;43.898;2023-11-19T00:04:29;15.20;;;4.60;;
70322;SDS011;57735;56.264;43.898;2023-11-19T00:07:00;13.27;;;4.82;;
70322;SDS011;57735;56.264;43.898;2023-11-19T00:09:36;16.65;;;5.22;;
70322;SDS011;57735;56.264;43.898;2023-11-19T00:12:07;16.67;;;4.95;;
70322;SDS011;57735;56.264;43.898;2023-11-19T00:14:38;14.85;;;5.88;;
70322;SDS011;57735;56.264;43.898;2023-11-19T00:17:09;9.40;;;3.78;;
70322;SDS011;57735;56.264;43.898;2023-11-19T00:19:40;19.35;;;4.85;;
70322;SDS011;57735;56.264;43.898;2023-11-19T00:22:10;18.45;;;5.43;;
70322;SDS011;57735;56.264;43.898;2023-11-19T00:24:41;12.35;;;4.20;;
70322;SDS011;57735;56.264;43.898;2023-11-19T00:27:14;17.80;;;4.85;;
70322;SDS011;57735;56.264;43.898;2023-11-19T00:29:48;14.05;;;4.50;;
70322;SDS011;57735;56.264;43.898;2023-11-19T00:32:19;15.23;;;4.10;;
70322;SDS011;57735;56.264;43.898;2023-11-19T00:34:53;14.25;;;4.88;;
70322;SDS011;57735;56.264;43.898;2023-11-19T00:37:23;12.38;;;5.25;;
70322;SDS011;57735;56.264;43.898;2023-11-19T00:40:02;15.60;;;4.85;;
70322;SDS011;57735;56.264;43.898;2023-11-19T00:42:36;17.17;;;4.83;;
70322;SDS011;57735;56.264;43.898;2023-11-19T00:45:07;17.95;;;5.05;;
70322;SDS011;57735;56.264;43.898;2023-11-19T00:47:40;13.68;;;4.45;;
70322;SDS011;57735;56.264;43.898;2023-11-19T00:50:11;14.32;;;4.72;;
70322;SDS011;57735;56.264;43.898;2023-11-19T00:52:51;17.05;;;5.63;;
70322;SDS011;57735;56.264;43.898;2023-11-19T00:55:21;14.13;;;4.32;;
70322;SDS011;57735;56.264;43.898;2023-11-19T00:57:52;16.95;;;5.15;;
70322;SDS011;57735;56.264;43.898;2023-11-19T01:00:23;14.13;;;5.40;;
70322;SDS011;57735;56.264;43.898;2023-11-19T01:02:56;10.57;;;4.70;;
70322;SDS011;57735;56.264;43.898;2023-11-19T01:05:30;14.85;;;4.72;;
70322;SDS011;57735;56.264;43.898;2023-11-19T01:08:00;16.10;;;4.65;;
70322;SDS011;57735;56.264;43.898;2023-11-19T01:10:31;17.95;;;5.47;;
70322;SDS011;57735;56.264;43.898;2023-11-19T01:13:02;14.75;;;4.75;;
70322;SDS011;57735;56.264;43.898;2023-11-19T01:15:36;11.80;;;4.43;;
70322;SDS011;57735;56.264;43.898;2023-11-19T01:18:06;15.07;;;4.70;;
70322;SDS011;57735;56.264;43.898;2023-11-19T01:23:12;17.48;;;5.32;;
70322;SDS011;57735;56.264;43.898;2023-11-19T01:25:45;10.85;;;4.45;;
70322;SDS011;57735;56.264;43.898;2023-11-19T01:28:15;14.98;;;5.20;;
70322;SDS011;57735;56.264;43.898;2023-11-19T01:30:46;14.07;;;4.72;;
70322;SDS011;57735;56.264;43.898;2023-11-19T01:33:17;14.40;;;4.90;;
70322;SDS011;57735;56.264;43.898;2023-11-19T01:35:48;16.20;;;5.30;;
70322;SDS011;57735;56.264;43.898;2023-11-19T01:38:19;15.93;;;5.22;;
70322;SDS011;57735;56.264;43.898;2023-11-19T01:40:49;11.60;;;4.28;;
70322;SDS011;57735;56.264;43.898;2023-11-19T01:43:36;13.13;;;5.50;;
70322;SDS011;57735;56.264;43.898;2023-11-19T01:46:08;11.77;;;4.60;;
70322;SDS011;57735;56.264;43.898;2023-11-19T01:48:44;13.88;;;4.35;;
70322;SDS011;57735;56.264;43.898;2023-11-19T01:51:16;10.30;;;4.13;;
70322;SDS011;57735;56.264;43.898;2023-11-19T01:53:47;12.65;;;5.07;;
70322;SDS011;57735;56.264;43.898;2023-11-19T01:56:19;11.90;;;4.82;;
70322;SDS011;57735;56.264;43.898;2023-11-19T01:58:51;13.07;;;4.75;;
70322;SDS011;57735;56.264;43.898;2023-11-19T02:01:24;11.23;;;4.47;;
70322;SDS011;57735;56.264;43.898;2023-11-19T02:03:55;13.75;;;4.50;;
70322;SDS011;57735;56.264;43.898;2023-11-19T02:06:28;10.50;;;3.83;;
70322;SDS011;57735;56.264;43.898;2023-11-19T02:09:00;13.05;;;3.33;;
70322;SDS011;57735;56.264;43.898;2023-11-19T02:11:31;12.93;;;4.90;;
70322;SDS011;57735;56.264;43.898;2023-11-19T02:14:04;26.08;;;4.55;;
70322;SDS011;57735;56.264;43.898;2023-11-19T02:16:36;12.32;;;4.47;;
70322;SDS011;57735;56.264;43.898;2023-11-19T02:19:07;10.27;;;3.88;;
70322;SDS011;57735;56.264;43.898;2023-11-19T02:22:01;13.88;;;4.22;;
70322;SDS011;57735;56.264;43.898;2023-11-19T02:24:35;15.77;;;4.80;;
70322;SDS011;57735;56.264;43.898;2023-11-19T02:27:10;13.25;;;4.18;;
70322;SDS011;57735;56.264;43.898;2023-11-19T02:29:51;13.63;;;4.55;;
70322;SDS011;57735;56.264;43.898;2023-11-19T02:32:22;11.13;;;3.88;;
70322;SDS011;57735;56.264;43.898;2023-11-19T02:34:53;15.63;;;4.35;;
70322;SDS011;57735;56.264;43.898;2023-11-19T02:37:26;10.37;;;3.87;;
70322;SDS011;57735;56.264;43.898;2023-11-19T02:39:58;9.63;;;3.88;;
70322;SDS011;57735;56.264;43.898;2023-11-19T02:42:39;12.25;;;4.63;;
70322;SDS011;57735;56.264;43.898;2023-11-19T02:45:10;11.50;;;4.45;;
70322;SDS011;57735;56.264;43.898;2023-11-19T02:50:15;15.38;;;4.63;;
70322;SDS011;57735;56.264;43.898;2023-11-19T02:52:55;22.20;;;3.78;;
70322;SDS011;57735;56.264;43.898;2023-11-19T02:55:27;10.95;;;4.15;;
70322;SDS011;57735;56.264;43.898;2023-11-19T02:58:00;9.00;;;3.83;;
70322;SDS011;57735;56.264;43.898;2023-11-19T03:00:39;14.13;;;5.40;;
70322;SDS011;57735;56.264;43.898;2023-11-19T03:03:18;10.30;;;4.47;;
70322;SDS011;57735;56.264;43.898;2023-11-19T03:05:59;15.07;;;4.85;;
70322;SDS011;57735;56.264;43.898;2023-11-19T03:08:30;13.77;;;4.18;;
70322;SDS011;57735;56.264;43.898;2023-11-19T03:11:01;11.85;;;4.43;;
70322;SDS011;57735;56.264;43.898;2023-11-19T03:13:32;9.45;;;4.70;;
70322;SDS011;57735;56.264;43.898;2023-11-19T03:16:03;10.48;;;4.63;;
70322;SDS011;57735;56.264;43.898;2023-11-19T03:18:34;10.45;;;4.40;;
70322;SDS011;57735;56.264;43.898;2023-11-19T03:21:06;10.27;;;4.38;;
70322;SDS011;57735;56.264;43.898;2023-11-19T03:23:38;11.73;;;4.25;;
70322;SDS011;57735;56.264;43.898;2023-11-19T03:26:10;10.23;;;4.05;;
70322;SDS011;57735;56.264;43.898;2023-11-19T03:28:43;14.80;;;3.85;;
70322;SDS011;57735;56.264;43.898;2023-11-19T03:31:14;15.45;;;4.07;;
70322;SDS011;57735;56.264;43.898;2023-11-19T03:33:45;9.88;;;4.18;;
70322;SDS011;57735;56.264;43.898;2023-11-19T03:36:16;15.93;;;5.57;;
70322;SDS011;57735;56.264;43.898;2023-11-19T03:38:47;16.80;;;4.75;;
70322;SDS011;57735;56.264;43.898;2023-11-19T03:41:18;10.30;;;5.07;;
70322;SDS011;57735;56.264;43.898;2023-11-19T03:43:52;13.93;;;4.75;;
70322;SDS011;57735;56.264;43.898;2023-11-19T03:46:23;11.13;;;5.03;;
70322;SDS011;57735;56.264;43.898;2023-11-19T03:48:54;14.73;;;5.00;;
70322;SDS011;57735;56.264;43.898;2023-11-19T03:51:27;11.75;;;4.80;;
70322;SDS011;57735;56.264;43.898;2023-11-19T03:53:58;13.13;;;4.70;;
70322;SDS011;57735;56.264;43.898;2023-11-19T03:56:29;9.85;;;4.63;;
70322;SDS011;57735;56.264;43.898;2023-11-19T03:59:03;11.00;;;5.20;;
70322;SDS011;57735;56.264;43.898;2023-11-19T04:01:34;11.82;;;5.00;;
70322;SDS011;57735;56.264;43.898;2023-11-19T04:04:07;9.85;;;4.18;;
70322;SDS011;57735;56.264;43.898;2023-11-19T04:06:38;15.35;;;4.95;;
70322;SDS011;57735;56.264;43.898;2023-11-19T04:09:09;15.43;;;5.70;;
70322;SDS011;57735;56.264;43.898;2023-11-19T04:11:39;9.20;;;3.78;;
70322;SDS011;57735;56.264;43.898;2023-11-19T04:14:10;15.80;;;4.72;;
70322;SDS011;57735;56.264;43.898;2023-11-19T04:16:43;23.45;;;5.90;;
70322;SDS011;57735;56.264;43.898;2023-11-19T04:19:15;13.68;;;5.82;;
70322;SDS011;57735;56.264;43.898;2023-11-19T04:21:48;17.85;;;5.63;;
70322;SDS011;57735;56.264;43.898;2023-11-19T04:24:19;18.98;;;5.07;;
70322;SDS011;57735;56.264;43.898;2023-11-19T04:26:50;15.73;;;5.72;;
70322;SDS011;57735;56.264;43.898;2023-11-19T04:29:21;16.40;;;5.55;;
70322;SDS011;57735;56.264;43.898;2023-11-19T04:31:52;20.05;;;5.30;;
70322;SDS011;57735;56.264;43.898;2023-11-19T04:34:22;19.77;;;5.97;;
70322;SDS011;57735;56.264;43.898;2023-11-19T04:36:54;14.07;;;5.35;;
70322;SDS011;57735;56.264;43.898;2023-11-19T04:39:25;15.85;;;5.80;;
70322;SDS011;57735;56.264;43.898;2023-11-19T04:41:57;13.10;;;4.57;;
70322;SDS011;57735;56.264;43.898;2023-11-19T04:44:28;14.57;;;5.50;;
70322;SDS011;57735;56.264;43.898;2023-11-19T04:47:00;16.55;;;5.95;;
70322;SDS011;57735;56.264;43.898;2023-11-19T04:49:30;13.52;;;4.80;;
70322;SDS011;57735;56.264;43.898;2023-11-19T04:52:03;23.48;;;6.60;;
70322;SDS011;57735;56.264;43.898;2023-11-19T04:54:40;15.65;;;4.50;;
70322;SDS011;57735;56.264;43.898;2023-11-19T04:57:14;24.98;;;5.60;;
70322;SDS011;57735;56.264;43.898;2023-11-19T04:59:47;14.85;;;5.85;;
70322;SDS011;57735;56.264;43.898;2023-11-19T05:02:18;15.80;;;4.82;;
70322;SDS011;57735;56.264;43.898;2023-11-19T05:04:49;18.92;;;6.25;;
70322;SDS011;57735;56.264;43.898;2023-11-19T05:07:20;14.30;;;5.05;;
70322;SDS011;57735;56.264;43.898;2023-11-19T05:09:51;23.92;;;6.65;;
70322;SDS011;57735;56.264;43.898;2023-11-19T05:12:21;16.48;;;5.75;;
70322;SDS011;57735;56.264;43.898;2023-11-19T05:14:53;19.20;;;6.20;;
70322;SDS011;57735;56.264;43.898;2023-11-19T05:17:24;21.02;;;7.45;;
70322;SDS011;57735;56.264;43.898;2023-11-19T05:19:54;30.23;;;7.30;;
70322;SDS011;57735;56.264;43.898;2023-11-19T05:22:25;19.83;;;6.13;;
70322;SDS011;57735;56.264;43.898;2023-11-19T05:24:56;21.55;;;7.38;;
70322;SDS011;57735;56.264;43.898;2023-11-19T05:27:27;22.17;;;7.10;;
70322;SDS011;57735;56.264;43.898;2023-11-19T05:29:58;21.73;;;6.57;;
70322;SDS011;57735;56.264;43.898;2023-11-19T05:32:29;27.13;;;7.28;;
70322;SDS011;57735;56.264;43.898;2023-11-19T05:35:00;23.08;;;6.80;;
70322;SDS011;57735;56.264;43.898;2023-11-19T05:37:36;22.35;;;5.93;;
70322;SDS011;57735;56.264;43.898;2023-11-19T05:40:07;15.77;;;6.35;;
70322;SDS011;57735;56.264;43.898;2023-11-19T05:42:45;20.60;;;6.07;;
70322;SDS011;57735;56.264;43.898;2023-11-19T05:45:16;16.30;;;6.53;;
70322;SDS011;57735;56.264;43.898;2023-11-19T05:47:47;17.27;;;6.35;;
70322;SDS011;57735;56.264;43.898;2023-11-19T05:50:17;13.10;;;4.47;;
70322;SDS011;57735;56.264;43.898;2023-11-19T05:52:48;18.08;;;5.75;;
70322;SDS011;57735;56.264;43.898;2023-11-19T05:55:19;17.60;;;5.63;;
70322;SDS011;57735;56.264;43.898;2023-11-19T05:57:50;15.13;;;4.93;;
70322;SDS011;57735;56.264;43.898;2023-11-19T06:00:24;22.58;;;6.15;;
70322;SDS011;57735;56.264;43.898;2023-11-19T06:02:57;16.92;;;5.45;;
70322;SDS011;57735;56.264;43.898;2023-11-19T06:05:28;21.63;;;6.22;;
70322;SDS011;57735;56.264;43.898;2023-11-19T06:07:59;19.33;;;5.95;;
70322;SDS011;57735;56.264;43.898;2023-11-19T06:10:30;15.93;;;5.60;;
70322;SDS011;57735;56.264;43.898;2023-11-19T06:13:03;15.53;;;5.50;;
70322;SDS011;57735;56.264;43.898;2023-11-19T06:15:35;13.15;;;5.15;;
70322;SDS011;57735;56.264;43.898;2023-11-19T06:18:09;12.27;;;5.28;;
70322;SDS011;57735;56.264;43.898;2023-11-19T06:20:41;22.30;;;5.75;;
70322;SDS011;57735;56.264;43.898;2023-11-19T06:23:14;17.55;;;6.30;;
70322;SDS011;57735;56.264;43.898;2023-11-19T06:25:45;7.35;;;4.18;;
70322;SDS011;57735;56.264;43.898;2023-11-19T06:28:15;19.33;;;6.40;;
70322;SDS011;57735;56.264;43.898;2023-11-19T06:30:46;17.13;;;5.65;;
70322;SDS011;57735;56.264;43.898;2023-11-19T06:33:17;15.15;;;6.07;;
70322;SDS011;57735;56.264;43.898;2023-11-19T06:35:48;16.08;;;5.95;;
70322;SDS011;57735;56.264;43.898;2023-11-19T06:38:20;16.90;;;6.57;;
70322;SDS011;57735;56.264;43.898;2023-11-19T06:40:53;32.97;;;8.27;;
70322;SDS011;57735;56.264;43.898;2023-11-19T06:43:24;14.65;;;5.85;;
70322;SDS011;57735;56.264;43.898;2023-11-19T06:45:56;17.10;;;6.55;;
70322;SDS011;57735;56.264;43.898;2023-11-19T06:48:27;16.77;;;6.20;;
70322;SDS011;57735;56.264;43.898;2023-11-19T06:50:57;20.23;;;7.63;;
70322;SDS011;57735;56.264;43.898;2023-11-19T06:53:29;12.70;;;5.78;;
70322;SDS011;57735;56.264;43.898;2023-11-19T06:56:02;30.15;;;8.98;;
70322;SDS011;57735;56.264;43.898;2023-11-19T06:58:36;18.95;;;7.18;;
70322;SDS011;57735;56.264;43.898;2023-11-19T07:01:08;24.80;;;6.75;;
70322;SDS011;57735;56.264;43.898;2023-11-19T07:03:41;17.70;;;5.72;;
70322;SDS011;57735;56.264;43.898;2023-11-19T07:06:12;14.23;;;5.35;;
70322;SDS011;57735;56.264;43.898;2023-11-19T07:08:44;24.48;;;6.28;;
70322;SDS011;57735;56.264;43.898;2023-11-19T07:11:15;22.95;;;7.97;;
70322;SDS011;57735;56.264;43.898;2023-11-19T07:13:47;14.65;;;6.13;;
70322;SDS011;57735;56.264;43.898;2023-11-19T07:16:18;17.65;;;5.78;;
70322;SDS011;57735;56.264;43.898;2023-11-19T07:18:49;14.50;;;5.38;;
70322;SDS011;57735;56.264;43.898;2023-11-19T07:21:20;26.35;;;5.70;;
70322;SDS011;57735;56.264;43.898;2023-11-19T07:23:51;6.80;;;3.83;;
70322;SDS011;57735;56.264;43.898;2023-11-19T07:26:22;16.98;;;5.57;;
70322;SDS011;57735;56.264;43.898;2023-11-19T07:28:53;18.52;;;4.82;;
70322;SDS011;57735;56.264;43.898;2023-11-19T07:31:25;14.82;;;5.35;;
70322;SDS011;57735;56.264;43.898;2023-11-19T07:33:58;10.35;;;3.53;;
70322;SDS011;57735;56.264;43.898;2023-11-19T07:36:28;13.95;;;4.18;;
70322;SDS011;57735;56.264;43.898;2023-11-19T07:38:59;7.68;;;3.40;;
70322;SDS011;57735;56.264;43.898;2023-11-19T07:41:33;10.40;;;3.60;;
70322;SDS011;57735;56.264;43.898;2023-11-19T07:44:04;11.38;;;3.92;;
70322;SDS011;57735;56.264;43.898;2023-11-19T07:46:36;8.82;;;3.40;;
70322;SDS011;57735;56.264;43.898;2023-11-19T07:49:07;12.15;;;3.53;;
70322;SDS011;57735;56.264;43.898;2023-11-19T07:51:40;12.27;;;4.15;;
70322;SDS011;57735;56.264;43.898;2023-11-19T07:54:11;9.95;;;4.75;;
70322;SDS011;57735;56.264;43.898;2023-11-19T07:56:41;9.70;;;3.40;;
70322;SDS011;57735;56.264;43.898;2023-11-19T07:59:12;10.80;;;3.90;;
70322;SDS011;57735;56.264;43.898;2023-11-19T08:01:43;15.23;;;4.30;;
70322;SDS011;57735;56.264;43.898;2023-11-19T08:04:17;12.67;;;3.70;;
70322;SDS011;57735;56.264;43.898;2023-11-19T08:06:48;10.35;;;3.95;;
70322;SDS011;57735;56.264;43.898;2023-11-19T08:09:18;13.63;;;5.45;;
70322;SDS011;57735;56.264;43.898;2023-11-19T08:11:49;18.98;;;4.50;;
70322;SDS011;57735;56.264;43.898;2023-11-19T08:14:21;13.80;;;4.45;;
70322;SDS011;57735;56.264;43.898;2023-11-19T08:16:52;10.50;;;4.38;;
70322;SDS011;57735;56.264;43.898;2023-11-19T08:19:23;8.95;;;3.75;;
70322;SDS011;57735;56.264;43.898;2023-11-19T08:21:54;17.00;;;6.07;;
70322;SDS011;57735;56.264;43.898;2023-11-19T08:24:25;14.07;;;4.45;;
70322;SDS011;57735;56.264;43.898;2023-11-19T08:26:58;13.80;;;4.03;;
70322;SDS011;57735;56.264;43.898;2023-11-19T08:29:29;15.55;;;5.53;;
70322;SDS011;57735;56.264;43.898;2023-11-19T08:32:00;13.25;;;4.82;;
70322;SDS011;57735;56.264;43.898;2023-11-19T08:34:33;20.17;;;5.80;;
70322;SDS011;57735;56.264;43.898;2023-11-19T08:37:05;16.15;;;5.05;;
70322;SDS011;57735;56.264;43.898;2023-11-19T08:39:36;41.28;;;7.47;;
70322;SDS011;57735;56.264;43.898;2023-11-19T08:42:08;16.00;;;4.88;;
70322;SDS011;57735;56.264;43.898;2023-11-19T08:44:39;13.18;;;5.65;;
70322;SDS011;57735;56.264;43.898;2023-11-19T08:47:13;20.50;;;6.53;;
70322;SDS011;57735;56.264;43.898;2023-11-19T08:49:46;27.85;;;6.88;;
70322;SDS011;57735;56.264;43.898;2023-11-19T08:52:17;19.10;;;5.65;;
70322;SDS011;57735;56.264;43.898;2023-11-19T08:54:48;23.95;;;6.43;;
70322;SDS011;57735;56.264;43.898;2023-11-19T08:57:19;27.40;;;9.35;;
70322;SDS011;57735;56.264;43.898;2023-11-19T08:59:50;16.05;;;5.93;;
70322;SDS011;57735;56.264;43.898;2023-11-19T09:02:21;24.85;;;7.35;;
70322;SDS011;57735;56.264;43.898;2023-11-19T09:04:52;13.13;;;5.82;;
70322;SDS011;57735;56.264;43.898;2023-11-19T09:07:23;12.27;;;5.70;;
70322;SDS011;57735;56.264;43.898;2023-11-19T09:09:53;14.60;;;5.68;;
70322;SDS011;57735;56.264;43.898;2023-11-19T09:12:24;29.95;;;7.07;;
70322;SDS011;57735;56.264;43.898;2023-11-19T09:15:00;11.60;;;5.20;;
70322;SDS011;57735;56.264;43.898;2023-11-19T09:17:31;20.70;;;6.35;;
70322;SDS011;57735;56.264;43.898;2023-11-19T09:20:01;19.75;;;7.20;;
70322;SDS011;57735;56.264;43.898;2023-11-19T09:22:34;15.30;;;5.32;;
70322;SDS011;57735;56.264;43.898;2023-11-19T09:25:07;18.98;;;5.95;;
70322;SDS011;57735;56.264;43.898;2023-11-19T09:27:39;19.50;;;6.60;;
70322;SDS011;57735;56.264;43.898;2023-11-19T09:30:10;17.58;;;7.20;;
70322;SDS011;57735;56.264;43.898;2023-11-19T09:32:41;26.17;;;7.32;;
70322;SDS011;57735;56.264;43.898;2023-11-19T09:35:14;26.27;;;8.50;;
70322;SDS011;57735;56.264;43.898;2023-11-19T09:37:46;32.42;;;9.35;;
70322;SDS011;57735;56.264;43.898;2023-11-19T09:40:20;16.30;;;6.97;;
70322;SDS011;57735;56.264;43.898;2023-11-19T09:42:51;20.35;;;7.00;;
70322;SDS011;57735;56.264;43.898;2023-11-19T09:45:25;14.65;;;6.30;;
70322;SDS011;57735;56.264;43.898;2023-11-19T09:47:58;14.05;;;6.03;;
70322;SDS011;57735;56.264;43.898;2023-11-19T09:50:31;20.75;;;7.05;;
70322;SDS011;57735;56.264;43.898;2023-11-19T09:53:02;20.73;;;7.00;;
70322;SDS011;57735;56.264;43.898;2023-11-19T09:55:35;14.55;;;6.30;;
70322;SDS011;57735;56.264;43.898;2023-11-19T09:58:06;22.48;;;7.18;;
70322;SDS011;57735;56.264;43.898;2023-11-19T10:00:38;11.32;;;5.18;;
70322;SDS011;57735;56.264;43.898;2023-11-19T10:03:09;18.25;;;6.03;;
70322;SDS011;57735;56.264;43.898;2023-11-19T10:05:42;27.45;;;6.75;;
70322;SDS011;57735;56.264;43.898;2023-11-19T10:08:16;15.27;;;6.22;;
70322;SDS011;57735;56.264;43.898;2023-11-19T10:10:47;14.32;;;5.65;;
70322;SDS011;57735;56.264;43.898;2023-11-19T10:13:30;16.65;;;6.63;;
70322;SDS011;57735;56.264;43.898;2023-11-19T10:16:03;15.32;;;5.72;;
70322;SDS011;57735;56.264;43.898;2023-11-19T10:18:42;18.40;;;5.80;;
70322;SDS011;57735;56.264;43.898;2023-11-19T10:21:18;12.75;;;5.63;;
70322;SDS011;57735;56.264;43.898;2023-11-19T10:23:55;19.08;;;6.05;;
70322;SDS011;57735;56.264;43.898;2023-11-19T10:26:30;13.77;;;5.47;;
70322;SDS011;57735;56.264;43.898;2023-11-19T10:29:06;14.40;;;5.05;;
70322;SDS011;57735;56.264;43.898;2023-11-19T10:31:37;19.13;;;6.65;;
70322;SDS011;57735;56.264;43.898;2023-11-19T10:34:13;14.60;;;5.72;;
70322;SDS011;57735;56.264;43.898;2023-11-19T10:36:56;19.77;;;5.28;;
70322;SDS011;57735;56.264;43.898;2023-11-19T10:39:33;17.70;;;5.10;;
70322;SDS011;57735;56.264;43.898;2023-11-19T10:42:27;18.17;;;5.03;;
70322;SDS011;57735;56.264;43.898;2023-11-19T10:44:58;14.05;;;4.65;;
70322;SDS011;57735;56.264;43.898;2023-11-19T10:47:31;9.32;;;4.22;;
70322;SDS011;57735;56.264;43.898;2023-11-19T10:50:05;17.75;;;5.20;;
70322;SDS011;57735;56.264;43.898;2023-11-19T10:52:39;15.50;;;4.72;;
70322;SDS011;57735;56.264;43.898;2023-11-19T10:55:11;14.18;;;5.53;;
70322;SDS011;57735;56.264;43.898;2023-11-19T10:57:45;12.40;;;4.53;;
70322;SDS011;57735;56.264;43.898;2023-11-19T11:00:19;19.40;;;5.68;;
70322;SDS011;57735;56.264;43.898;2023-11-19T11:02:53;17.70;;;5.82;;
70322;SDS011;57735;56.264;43.898;2023-11-19T11:05:26;14.23;;;5.60;;
70322;SDS011;57735;56.264;43.898;2023-11-19T11:08:00;22.17;;;6.75;;
70322;SDS011;57735;56.264;43.898;2023-11-19T11:10:32;32.40;;;7.00;;
70322;SDS011;57735;56.264;43.898;2023-11-19T11:13:09;12.70;;;4.38;;
70322;SDS011;57735;56.264;43.898;2023-11-19T11:15:42;18.55;;;5.70;;
70322;SDS011;57735;56.264;43.898;2023-11-19T11:18:13;10.50;;;4.53;;
70322;SDS011;57735;56.264;43.898;2023-11-19T11:20:45;19.50;;;4.88;;
70322;SDS011;57735;56.264;43.898;2023-11-19T11:35:30;12.93;;;3.65;;
70322;SDS011;57735;56.264;43.898;2023-11-19T11:38:23;14.50;;;5.20;;
70322;SDS011;57735;56.264;43.898;2023-11-19T11:43:53;26.73;;;5.10;;
70322;SDS011;57735;56.264;43.898;2023-11-19T11:49:07;13.27;;;4.40;;
70322;SDS011;57735;56.264;43.898;2023-11-19T11:57:02;8.00;;;3.88;;
70322;SDS011;57735;56.264;43.898;2023-11-19T11:59:49;17.75;;;4.78;;
70322;SDS011;57735;56.264;43.898;2023-11-19T12:02:21;20.95;;;5.38;;
70322;SDS011;57735;56.264;43.898;2023-11-19T12:04:55;14.52;;;5.20;;
70322;SDS011;57735;56.264;43.898;2023-11-19T12:07:26;17.60;;;4.72;;
70322;SDS011;57735;56.264;43.898;2023-11-19T12:10:06;18.95;;;5.35;;
70322;SDS011;57735;56.264;43.898;2023-11-19T12:12:39;15.05;;;4.32;;
70322;SDS011;57735;56.264;43.898;2023-11-19T12:15:11;16.58;;;4.53;;
70322;SDS011;57735;56.264;43.898;2023-11-19T12:17:50;8.68;;;3.67;;
70322;SDS011;57735;56.264;43.898;2023-11-19T12:20:22;10.70;;;4.00;;
70322;SDS011;57735;56.264;43.898;2023-11-19T12:22:54;12.32;;;4.82;;
70322;SDS011;57735;56.264;43.898;2023-11-19T12:25:25;25.00;;;6.18;;
70322;SDS011;57735;56.264;43.898;2023-11-19T12:27:56;24.00;;;7.20;;
70322;SDS011;57735;56.264;43.898;2023-11-19T12:30:27;29.63;;;8.25;;
70322;SDS011;57735;56.264;43.898;2023-11-19T12:32:59;14.90;;;5.20;;
70322;SDS011;57735;56.264;43.898;2023-11-19T12:35:30;25.80;;;6.78;;
70322;SDS011;57735;56.264;43.898;2023-11-19T12:38:01;11.90;;;4.38;;
70322;SDS011;57735;56.264;43.898;2023-11-19T12:40:32;18.25;;;4.78;;
70322;SDS011;57735;56.264;43.898;2023-11-19T12:43:05;8.43;;;4.25;;
70322;SDS011;57735;56.264;43.898;2023-11-19T12:45:36;10.05;;;3.53;;
70322;SDS011;57735;56.264;43.898;2023-11-19T12:48:08;8.10;;;3.60;;
70322;SDS011;57735;56.264;43.898;2023-11-19T12:50:55;9.85;;;3.70;;
70322;SDS011;57735;56.264;43.898;2023-11-19T12:53:27;13.27;;;4.65;;
70322;SDS011;57735;56.264;43.898;2023-11-19T12:56:07;14.93;;;4.40;;
70322;SDS011;57735;56.264;43.898;2023-11-19T12:58:40;12.88;;;3.97;;
70322;SDS011;57735;56.264;43.898;2023-11-19T13:01:17;13.13;;;4.20;;
70322;SDS011;57735;56.264;43.898;2023-11-19T13:03:51;11.27;;;4.20;;
70322;SDS011;57735;56.264;43.898;2023-11-19T13:06:22;13.15;;;4.55;;
70322;SDS011;57735;56.264;43.898;2023-11-19T13:08:53;15.85;;;4.05;;
70322;SDS011;57735;56.264;43.898;2023-11-19T13:11:32;12.20;;;4.22;;
70322;SDS011;57735;56.264;43.898;2023-11-19T13:14:11;9.85;;;3.55;;
70322;SDS011;57735;56.264;43.898;2023-11-19T13:16:42;6.60;;;3.35;;
70322;SDS011;57735;56.264;43.898;2023-11-19T13:19:13;9.38;;;4.43;;
70322;SDS011;57735;56.264;43.898;2023-11-19T13:21:46;11.13;;;3.28;;
70322;SDS011;57735;56.264;43.898;2023-11-19T13:24:19;7.18;;;3.00;;
70322;SDS011;57735;56.264;43.898;2023-11-19T13:26:50;13.38;;;4.68;;
70322;SDS011;57735;56.264;43.898;2023-11-19T13:29:23;9.45;;;3.60;;
70322;SDS011;57735;56.264;43.898;2023-11-19T13:31:54;12.77;;;3.72;;
70322;SDS011;57735;56.264;43.898;2023-11-19T13:34:25;21.38;;;5.30;;
70322;SDS011;57735;56.264;43.898;2023-11-19T13:36:56;9.82;;;4.28;;
70322;SDS011;57735;56.264;43.898;2023-11-19T13:39:27;12.65;;;3.90;;
70322;SDS011;57735;56.264;43.898;2023-11-19T13:41:57;17.20;;;4.50;;
70322;SDS011;57735;56.264;43.898;2023-11-19T13:44:28;10.18;;;3.90;;
70322;SDS011;57735;56.264;43.898;2023-11-19T13:46:59;8.40;;;4.22;;
70322;SDS011;57735;56.264;43.898;2023-11-19T13:49:33;12.75;;;4.72;;
70322;SDS011;57735;56.264;43.898;2023-11-19T13:52:04;9.30;;;4.35;;
70322;SDS011;57735;56.264;43.898;2023-11-19T13:54:36;20.20;;;4.00;;
70322;SDS011;57735;56.264;43.898;2023-11-19T13:57:07;8.88;;;3.35;;
70322;SDS011;57735;56.264;43.898;2023-11-19T13:59:39;15.00;;;4.40;;
70322;SDS011;57735;56.264;43.898;2023-11-19T14:02:13;16.75;;;3.45;;
70322;SDS011;57735;56.264;43.898;2023-11-19T14:04:44;16.42;;;4.57;;
70322;SDS011;57735;56.264;43.898;2023-11-19T14:07:17;14.15;;;4.13;;
70322;SDS011;57735;56.264;43.898;2023-11-19T14:09:48;26.63;;;5.93;;
70322;SDS011;57735;56.264;43.898;2023-11-19T14:12:20;25.45;;;5.40;;
70322;SDS011;57735;56.264;43.898;2023-11-19T14:14:51;13.68;;;3.63;;
70322;SDS011;57735;56.264;43.898;2023-11-19T14:17:22;11.55;;;3.47;;
70322;SDS011;57735;56.264;43.898;2023-11-19T14:19:52;16.33;;;4.15;;
70322;SDS011;57735;56.264;43.898;2023-11-19T14:22:23;11.00;;;3.65;;
70322;SDS011;57735;56.264;43.898;2023-11-19T14:24:55;12.32;;;3.78;;
70322;SDS011;57735;56.264;43.898;2023-11-19T14:27:25;11.02;;;3.83;;
70322;SDS011;57735;56.264;43.898;2023-11-19T14:29:56;17.10;;;5.47;;
70322;SDS011;57735;56.264;43.898;2023-11-19T14:32:27;15.00;;;4.25;;
70322;SDS011;57735;56.264;43.898;2023-11-19T14:34:58;10.18;;;3.67;;
70322;SDS011;57735;56.264;43.898;2023-11-19T14:37:29;20.95;;;4.88;;
70322;SDS011;57735;56.264;43.898;2023-11-19T14:40:03;24.27;;;4.68;;
70322;SDS011;57735;56.264;43.898;2023-11-19T14:42:36;19.27;;;5.13;;
70322;SDS011;57735;56.264;43.898;2023-11-19T14:45:09;19.75;;;4.75;;
70322;SDS011;57735;56.264;43.898;2023-11-19T14:47:42;36.30;;;4.75;;
70322;SDS011;57735;56.264;43.898;2023-11-19T14:50:13;19.55;;;4.10;;
70322;SDS011;57735;56.264;43.898;2023-11-19T14:52:44;13.98;;;3.40;;
70322;SDS011;57735;56.264;43.898;2023-11-19T14:55:15;11.60;;;3.70;;
70322;SDS011;57735;56.264;43.898;2023-11-19T14:57:46;10.48;;;4.03;;
70322;SDS011;57735;56.264;43.898;2023-11-19T15:00:17;12.23;;;3.90;;
70322;SDS011;57735;56.264;43.898;2023-11-19T15:02:47;13.73;;;3.60;;
70322;SDS011;57735;56.264;43.898;2023-11-19T15:05:18;13.55;;;3.75;;
70322;SDS011;57735;56.264;43.898;2023-11-19T15:07:50;19.83;;;4.07;;
70322;SDS011;57735;56.264;43.898;2023-11-19T15:10:20;17.75;;;4.60;;
70322;SDS011;57735;56.264;43.898;2023-11-19T15:12:55;18.83;;;4.32;;
70322;SDS011;57735;56.264;43.898;2023-11-19T15:15:26;12.05;;;3.65;;
70322;SDS011;57735;56.264;43.898;2023-11-19T15:17:56;9.38;;;3.83;;
70322;SDS011;57735;56.264;43.898;2023-11-19T15:20:27;7.85;;;3.08;;
70322;SDS011;57735;56.264;43.898;2023-11-19T15:23:00;8.10;;;3.67;;